sensor_id;sensor_type;location;lat;lon;timestamp;P1;durP1;ratioP1;P2;durP2;ratioP2
42726;SDS011;28372;56.832;60.658;2023-08-01T00:01:08;5.85;;;4.60;;
42726;SDS011;28372;56.832;60.658;2023-08-01T00:03:36;5.63;;;4.38;;
42726;SDS011;28372;56.832;60.658;2023-08-01T00:06:03;5.82;;;4.38;;
42726;SDS011;28372;56.832;60.658;2023-08-01T00:08:31;5.47;;;4.00;;
42726;SDS011;28372;56.832;60.658;2023-08-01T00:10:59;4.88;;;3.63;;
42726;SDS011;28372;56.832;60.658;2023-08-01T00:13:27;5.20;;;3.78;;
42726;SDS011;28372;56.832;60.658;2023-08-01T00:15:54;5.10;;;4.10;;
42726;SDS011;28372;56.832;60.658;2023-08-01T00:18:25;5.30;;;4.07;;
42726;SDS011;28372;56.832;60.658;2023-08-01T00:20:53;6.57;;;3.97;;
42726;SDS011;28372;56.832;60.658;2023-08-01T00:23:21;7.47;;;4.20;;
42726;SDS011;28372;56.832;60.658;2023-08-01T00:25:48;6.18;;;3.90;;
42726;SDS011;28372;56.832;60.658;2023-08-01T00:28:19;7.03;;;4.38;;
42726;SDS011;28372;56.832;60.658;2023-08-01T00:30:50;5.82;;;3.78;;
42726;SDS011;28372;56.832;60.658;2023-08-01T00:33:18;6.05;;;3.97;;
42726;SDS011;28372;56.832;60.658;2023-08-01T00:35:52;11.10;;;8.30;;
42726;SDS011;28372;56.832;60.658;2023-08-01T00:38:21;8.75;;;7.05;;
42726;SDS011;28372;56.832;60.658;2023-08-01T00:40:49;10.50;;;7.40;;
42726;SDS011;28372;56.832;60.658;2023-08-01T00:43:17;9.18;;;6.95;;
42726;SDS011;28372;56.832;60.658;2023-08-01T00:45:45;14.82;;;8.68;;
42726;SDS011;28372;56.832;60.658;2023-08-01T00:48:14;10.57;;;7.85;;
42726;SDS011;28372;56.832;60.658;2023-08-01T00:50:43;11.57;;;7.43;;
42726;SDS011;28372;56.832;60.658;2023-08-01T00:53:11;12.95;;;9.00;;
42726;SDS011;28372;56.832;60.658;2023-08-01T00:55:39;11.50;;;7.30;;
42726;SDS011;28372;56.832;60.658;2023-08-01T00:58:07;14.13;;;10.23;;
42726;SDS011;28372;56.832;60.658;2023-08-01T01:00:35;18.85;;;13.57;;
42726;SDS011;28372;56.832;60.658;2023-08-01T01:03:04;20.52;;;12.57;;
42726;SDS011;28372;56.832;60.658;2023-08-01T01:05:33;15.90;;;11.52;;
42726;SDS011;28372;56.832;60.658;2023-08-01T01:08:04;17.27;;;11.35;;
42726;SDS011;28372;56.832;60.658;2023-08-01T01:10:34;14.05;;;10.00;;
42726;SDS011;28372;56.832;60.658;2023-08-01T01:13:02;12.23;;;8.07;;
42726;SDS011;28372;56.832;60.658;2023-08-01T01:15:30;13.18;;;7.65;;
42726;SDS011;28372;56.832;60.658;2023-08-01T01:17:59;7.90;;;5.78;;
42726;SDS011;28372;56.832;60.658;2023-08-01T01:20:30;9.05;;;6.85;;
42726;SDS011;28372;56.832;60.658;2023-08-01T01:23:01;10.02;;;7.38;;
42726;SDS011;28372;56.832;60.658;2023-08-01T01:25:32;11.63;;;8.02;;
42726;SDS011;28372;56.832;60.658;2023-08-01T01:30:34;8.57;;;6.28;;
42726;SDS011;28372;56.832;60.658;2023-08-01T01:33:04;9.77;;;6.35;;
42726;SDS011;28372;56.832;60.658;2023-08-01T01:35:33;9.23;;;6.60;;
42726;SDS011;28372;56.832;60.658;2023-08-01T01:38:02;8.60;;;6.32;;
42726;SDS011;28372;56.832;60.658;2023-08-01T01:40:31;9.48;;;6.40;;
42726;SDS011;28372;56.832;60.658;2023-08-01T01:43:00;9.27;;;6.35;;
42726;SDS011;28372;56.832;60.658;2023-08-01T01:45:29;8.82;;;6.65;;
42726;SDS011;28372;56.832;60.658;2023-08-01T01:48:02;9.48;;;6.55;;
42726;SDS011;28372;56.832;60.658;2023-08-01T01:50:30;7.80;;;6.20;;
42726;SDS011;28372;56.832;60.658;2023-08-01T01:53:01;9.93;;;7.72;;
42726;SDS011;28372;56.832;60.658;2023-08-01T01:55:28;11.20;;;6.97;;
42726;SDS011;28372;56.832;60.658;2023-08-01T01:57:59;10.20;;;6.82;;
42726;SDS011;28372;56.832;60.658;2023-08-01T02:00:27;9.95;;;7.40;;
42726;SDS011;28372;56.832;60.658;2023-08-01T02:02:54;9.52;;;7.00;;
42726;SDS011;28372;56.832;60.658;2023-08-01T02:05:23;8.93;;;6.20;;
42726;SDS011;28372;56.832;60.658;2023-08-01T02:07:51;8.25;;;6.65;;
42726;SDS011;28372;56.832;60.658;2023-08-01T02:10:19;8.60;;;6.80;;
42726;SDS011;28372;56.832;60.658;2023-08-01T02:12:47;11.43;;;7.45;;
42726;SDS011;28372;56.832;60.658;2023-08-01T02:15:15;9.77;;;7.13;;
42726;SDS011;28372;56.832;60.658;2023-08-01T02:17:43;8.95;;;6.72;;
42726;SDS011;28372;56.832;60.658;2023-08-01T02:20:12;10.65;;;6.60;;
42726;SDS011;28372;56.832;60.658;2023-08-01T02:22:40;13.07;;;8.50;;
42726;SDS011;28372;56.832;60.658;2023-08-01T02:25:08;12.90;;;9.68;;
42726;SDS011;28372;56.832;60.658;2023-08-01T02:27:36;9.13;;;6.43;;
42726;SDS011;28372;56.832;60.658;2023-08-01T02:30:06;9.82;;;7.38;;
42726;SDS011;28372;56.832;60.658;2023-08-01T02:32:35;9.05;;;6.55;;
42726;SDS011;28372;56.832;60.658;2023-08-01T02:35:04;9.50;;;6.70;;
42726;SDS011;28372;56.832;60.658;2023-08-01T02:37:33;8.55;;;6.40;;
42726;SDS011;28372;56.832;60.658;2023-08-01T02:40:04;9.82;;;6.28;;
42726;SDS011;28372;56.832;60.658;2023-08-01T02:42:34;8.23;;;6.50;;
42726;SDS011;28372;56.832;60.658;2023-08-01T02:45:02;8.00;;;6.07;;
42726;SDS011;28372;56.832;60.658;2023-08-01T02:47:34;8.25;;;5.40;;
42726;SDS011;28372;56.832;60.658;2023-08-01T02:50:01;7.63;;;5.03;;
42726;SDS011;28372;56.832;60.658;2023-08-01T02:52:31;6.43;;;5.03;;
42726;SDS011;28372;56.832;60.658;2023-08-01T02:54:59;8.93;;;5.25;;
42726;SDS011;28372;56.832;60.658;2023-08-01T02:57:29;6.68;;;5.10;;
42726;SDS011;28372;56.832;60.658;2023-08-01T02:59:57;7.30;;;5.55;;
42726;SDS011;28372;56.832;60.658;2023-08-01T03:02:31;6.72;;;4.93;;
42726;SDS011;28372;56.832;60.658;2023-08-01T03:05:00;7.93;;;5.88;;
42726;SDS011;28372;56.832;60.658;2023-08-01T03:07:28;7.22;;;5.50;;
42726;SDS011;28372;56.832;60.658;2023-08-01T03:09:57;7.45;;;5.90;;
42726;SDS011;28372;56.832;60.658;2023-08-01T03:12:25;7.70;;;5.90;;
42726;SDS011;28372;56.832;60.658;2023-08-01T03:14:54;7.63;;;5.80;;
42726;SDS011;28372;56.832;60.658;2023-08-01T03:17:23;7.40;;;5.28;;
42726;SDS011;28372;56.832;60.658;2023-08-01T03:19:51;7.88;;;5.45;;
42726;SDS011;28372;56.832;60.658;2023-08-01T03:22:19;7.60;;;5.60;;
42726;SDS011;28372;56.832;60.658;2023-08-01T03:24:47;7.72;;;5.75;;
42726;SDS011;28372;56.832;60.658;2023-08-01T03:27:14;7.95;;;5.50;;
42726;SDS011;28372;56.832;60.658;2023-08-01T03:29:42;7.57;;;5.28;;
42726;SDS011;28372;56.832;60.658;2023-08-01T03:32:10;6.35;;;5.10;;
42726;SDS011;28372;56.832;60.658;2023-08-01T03:34:38;9.90;;;5.45;;
42726;SDS011;28372;56.832;60.658;2023-08-01T03:37:06;8.38;;;5.60;;
42726;SDS011;28372;56.832;60.658;2023-08-01T03:39:35;9.15;;;6.13;;
42726;SDS011;28372;56.832;60.658;2023-08-01T03:42:05;7.72;;;5.65;;
42726;SDS011;28372;56.832;60.658;2023-08-01T03:44:33;9.43;;;5.75;;
42726;SDS011;28372;56.832;60.658;2023-08-01T03:47:01;8.93;;;6.03;;
42726;SDS011;28372;56.832;60.658;2023-08-01T03:49:29;9.55;;;5.70;;
42726;SDS011;28372;56.832;60.658;2023-08-01T03:51:57;9.13;;;5.28;;
42726;SDS011;28372;56.832;60.658;2023-08-01T03:54:26;7.40;;;5.75;;
42726;SDS011;28372;56.832;60.658;2023-08-01T03:56:55;7.93;;;5.60;;
42726;SDS011;28372;56.832;60.658;2023-08-01T03:59:26;8.68;;;5.95;;
42726;SDS011;28372;56.832;60.658;2023-08-01T04:01:54;10.50;;;6.00;;
42726;SDS011;28372;56.832;60.658;2023-08-01T04:04:23;8.90;;;5.93;;
42726;SDS011;28372;56.832;60.658;2023-08-01T04:06:52;11.77;;;6.20;;
42726;SDS011;28372;56.832;60.658;2023-08-01T04:09:21;9.07;;;6.10;;
42726;SDS011;28372;56.832;60.658;2023-08-01T04:11:49;9.80;;;6.38;;
42726;SDS011;28372;56.832;60.658;2023-08-01T04:14:17;8.00;;;5.93;;
42726;SDS011;28372;56.832;60.658;2023-08-01T04:16:45;9.25;;;5.53;;
42726;SDS011;28372;56.832;60.658;2023-08-01T04:19:13;8.70;;;6.53;;
42726;SDS011;28372;56.832;60.658;2023-08-01T04:21:41;8.23;;;5.90;;
42726;SDS011;28372;56.832;60.658;2023-08-01T04:24:09;8.10;;;5.78;;
42726;SDS011;28372;56.832;60.658;2023-08-01T04:26:37;8.32;;;5.53;;
42726;SDS011;28372;56.832;60.658;2023-08-01T04:29:05;7.95;;;5.55;;
42726;SDS011;28372;56.832;60.658;2023-08-01T04:31:33;10.32;;;6.28;;
42726;SDS011;28372;56.832;60.658;2023-08-01T04:34:01;9.82;;;5.78;;
42726;SDS011;28372;56.832;60.658;2023-08-01T04:36:29;8.85;;;6.20;;
42726;SDS011;28372;56.832;60.658;2023-08-01T04:38:57;10.68;;;6.25;;
42726;SDS011;28372;56.832;60.658;2023-08-01T04:41:25;9.65;;;6.60;;
42726;SDS011;28372;56.832;60.658;2023-08-01T04:43:53;9.13;;;6.43;;
42726;SDS011;28372;56.832;60.658;2023-08-01T04:46:20;11.13;;;6.63;;
42726;SDS011;28372;56.832;60.658;2023-08-01T04:48:48;11.23;;;6.40;;
42726;SDS011;28372;56.832;60.658;2023-08-01T04:51:16;10.82;;;5.95;;
42726;SDS011;28372;56.832;60.658;2023-08-01T04:53:44;9.00;;;6.00;;
42726;SDS011;28372;56.832;60.658;2023-08-01T04:56:12;8.43;;;6.05;;
42726;SDS011;28372;56.832;60.658;2023-08-01T04:58:40;11.63;;;5.78;;
42726;SDS011;28372;56.832;60.658;2023-08-01T05:01:08;25.45;;;6.93;;
42726;SDS011;28372;56.832;60.658;2023-08-01T05:03:36;16.50;;;6.70;;
42726;SDS011;28372;56.832;60.658;2023-08-01T05:06:03;10.25;;;5.85;;
42726;SDS011;28372;56.832;60.658;2023-08-01T05:08:31;10.73;;;7.30;;
42726;SDS011;28372;56.832;60.658;2023-08-01T05:10:59;9.15;;;6.30;;
42726;SDS011;28372;56.832;60.658;2023-08-01T05:13:27;23.02;;;7.45;;
42726;SDS011;28372;56.832;60.658;2023-08-01T05:15:54;19.60;;;6.95;;
42726;SDS011;28372;56.832;60.658;2023-08-01T05:18:22;10.25;;;7.25;;
42726;SDS011;28372;56.832;60.658;2023-08-01T05:20:50;10.13;;;6.68;;
42726;SDS011;28372;56.832;60.658;2023-08-01T05:23:18;11.30;;;7.28;;
42726;SDS011;28372;56.832;60.658;2023-08-01T05:25:46;11.50;;;7.60;;
42726;SDS011;28372;56.832;60.658;2023-08-01T05:28:14;11.60;;;7.68;;
42726;SDS011;28372;56.832;60.658;2023-08-01T05:30:42;10.23;;;6.93;;
42726;SDS011;28372;56.832;60.658;2023-08-01T05:33:10;11.48;;;8.00;;
42726;SDS011;28372;56.832;60.658;2023-08-01T05:35:38;12.13;;;7.70;;
42726;SDS011;28372;56.832;60.658;2023-08-01T05:38:06;11.70;;;7.85;;
42726;SDS011;28372;56.832;60.658;2023-08-01T05:40:34;12.07;;;7.65;;
42726;SDS011;28372;56.832;60.658;2023-08-01T05:43:05;12.90;;;8.80;;
42726;SDS011;28372;56.832;60.658;2023-08-01T05:45:35;10.02;;;7.47;;
42726;SDS011;28372;56.832;60.658;2023-08-01T05:48:03;11.52;;;7.25;;
42726;SDS011;28372;56.832;60.658;2023-08-01T05:50:32;12.02;;;8.65;;
42726;SDS011;28372;56.832;60.658;2023-08-01T05:53:00;12.95;;;8.95;;
42726;SDS011;28372;56.832;60.658;2023-08-01T05:55:27;11.85;;;8.50;;
42726;SDS011;28372;56.832;60.658;2023-08-01T05:57:55;13.65;;;7.80;;
42726;SDS011;28372;56.832;60.658;2023-08-01T06:00:23;12.30;;;7.43;;
42726;SDS011;28372;56.832;60.658;2023-08-01T06:02:51;13.55;;;7.95;;
42726;SDS011;28372;56.832;60.658;2023-08-01T06:05:19;12.55;;;7.28;;
42726;SDS011;28372;56.832;60.658;2023-08-01T06:07:47;16.98;;;8.48;;
42726;SDS011;28372;56.832;60.658;2023-08-01T06:10:15;12.88;;;7.65;;
42726;SDS011;28372;56.832;60.658;2023-08-01T06:12:42;14.85;;;8.07;;
42726;SDS011;28372;56.832;60.658;2023-08-01T06:15:10;14.25;;;9.73;;
42726;SDS011;28372;56.832;60.658;2023-08-01T06:17:38;11.70;;;8.40;;
42726;SDS011;28372;56.832;60.658;2023-08-01T06:20:06;14.68;;;8.80;;
42726;SDS011;28372;56.832;60.658;2023-08-01T06:22:34;12.35;;;8.70;;
42726;SDS011;28372;56.832;60.658;2023-08-01T06:25:02;13.60;;;8.38;;
42726;SDS011;28372;56.832;60.658;2023-08-01T06:27:31;9.80;;;7.30;;
42726;SDS011;28372;56.832;60.658;2023-08-01T06:29:59;11.38;;;7.88;;
42726;SDS011;28372;56.832;60.658;2023-08-01T06:32:30;12.18;;;7.78;;
42726;SDS011;28372;56.832;60.658;2023-08-01T06:34:58;11.85;;;7.88;;
42726;SDS011;28372;56.832;60.658;2023-08-01T06:37:27;11.05;;;7.65;;
42726;SDS011;28372;56.832;60.658;2023-08-01T06:39:55;10.45;;;7.13;;
42726;SDS011;28372;56.832;60.658;2023-08-01T06:42:24;12.20;;;7.78;;
42726;SDS011;28372;56.832;60.658;2023-08-01T06:44:52;10.68;;;7.50;;
42726;SDS011;28372;56.832;60.658;2023-08-01T06:47:19;11.48;;;7.25;;
42726;SDS011;28372;56.832;60.658;2023-08-01T06:49:47;11.63;;;8.20;;
42726;SDS011;28372;56.832;60.658;2023-08-01T06:52:15;14.30;;;8.35;;
42726;SDS011;28372;56.832;60.658;2023-08-01T06:54:43;13.30;;;8.48;;
42726;SDS011;28372;56.832;60.658;2023-08-01T06:57:11;13.35;;;8.70;;
42726;SDS011;28372;56.832;60.658;2023-08-01T06:59:39;14.70;;;8.50;;
42726;SDS011;28372;56.832;60.658;2023-08-01T07:02:06;13.90;;;8.77;;
42726;SDS011;28372;56.832;60.658;2023-08-01T07:04:35;11.68;;;8.68;;
42726;SDS011;28372;56.832;60.658;2023-08-01T07:07:05;14.38;;;8.90;;
42726;SDS011;28372;56.832;60.658;2023-08-01T07:09:33;14.00;;;8.68;;
42726;SDS011;28372;56.832;60.658;2023-08-01T07:12:01;13.48;;;8.75;;
42726;SDS011;28372;56.832;60.658;2023-08-01T07:14:33;13.30;;;8.45;;
42726;SDS011;28372;56.832;60.658;2023-08-01T07:17:00;12.70;;;8.10;;
42726;SDS011;28372;56.832;60.658;2023-08-01T07:19:28;13.77;;;8.40;;
42726;SDS011;28372;56.832;60.658;2023-08-01T07:21:56;17.20;;;8.30;;
42726;SDS011;28372;56.832;60.658;2023-08-01T07:24:25;13.50;;;7.32;;
42726;SDS011;28372;56.832;60.658;2023-08-01T07:26:55;13.15;;;7.57;;
42726;SDS011;28372;56.832;60.658;2023-08-01T07:29:23;14.57;;;7.70;;
42726;SDS011;28372;56.832;60.658;2023-08-01T07:31:52;13.98;;;7.90;;
42726;SDS011;28372;56.832;60.658;2023-08-01T07:34:20;11.45;;;7.63;;
42726;SDS011;28372;56.832;60.658;2023-08-01T07:36:50;13.48;;;8.45;;
42726;SDS011;28372;56.832;60.658;2023-08-01T07:39:18;14.57;;;9.50;;
42726;SDS011;28372;56.832;60.658;2023-08-01T07:41:45;13.45;;;8.65;;
42726;SDS011;28372;56.832;60.658;2023-08-01T07:44:13;14.13;;;8.50;;
42726;SDS011;28372;56.832;60.658;2023-08-01T07:46:41;13.52;;;9.20;;
42726;SDS011;28372;56.832;60.658;2023-08-01T07:49:09;15.52;;;10.45;;
42726;SDS011;28372;56.832;60.658;2023-08-01T07:51:36;13.38;;;9.63;;
42726;SDS011;28372;56.832;60.658;2023-08-01T07:54:04;15.48;;;9.38;;
42726;SDS011;28372;56.832;60.658;2023-08-01T07:56:32;13.80;;;9.00;;
42726;SDS011;28372;56.832;60.658;2023-08-01T07:59:00;14.90;;;10.10;;
42726;SDS011;28372;56.832;60.658;2023-08-01T08:01:28;15.20;;;10.15;;
42726;SDS011;28372;56.832;60.658;2023-08-01T08:03:56;14.32;;;10.02;;
42726;SDS011;28372;56.832;60.658;2023-08-01T08:06:26;14.60;;;9.52;;
42726;SDS011;28372;56.832;60.658;2023-08-01T08:08:54;14.38;;;10.32;;
42726;SDS011;28372;56.832;60.658;2023-08-01T08:11:22;15.25;;;9.73;;
42726;SDS011;28372;56.832;60.658;2023-08-01T08:13:50;16.88;;;10.80;;
42726;SDS011;28372;56.832;60.658;2023-08-01T08:16:18;16.75;;;10.02;;
42726;SDS011;28372;56.832;60.658;2023-08-01T08:18:46;13.20;;;9.63;;
42726;SDS011;28372;56.832;60.658;2023-08-01T08:21:13;15.68;;;10.18;;
42726;SDS011;28372;56.832;60.658;2023-08-01T08:23:41;13.73;;;9.63;;
42726;SDS011;28372;56.832;60.658;2023-08-01T08:26:09;13.32;;;9.73;;
42726;SDS011;28372;56.832;60.658;2023-08-01T08:28:37;14.20;;;9.60;;
42726;SDS011;28372;56.832;60.658;2023-08-01T08:31:05;13.43;;;10.00;;
42726;SDS011;28372;56.832;60.658;2023-08-01T08:33:32;15.05;;;9.95;;
42726;SDS011;28372;56.832;60.658;2023-08-01T08:36:00;14.88;;;9.50;;
42726;SDS011;28372;56.832;60.658;2023-08-01T08:38:28;13.77;;;9.70;;
42726;SDS011;28372;56.832;60.658;2023-08-01T08:41:06;14.80;;;10.15;;
42726;SDS011;28372;56.832;60.658;2023-08-01T08:43:37;13.88;;;10.43;;
42726;SDS011;28372;56.832;60.658;2023-08-01T08:46:05;12.73;;;10.25;;
42726;SDS011;28372;56.832;60.658;2023-08-01T08:48:35;14.60;;;10.30;;
42726;SDS011;28372;56.832;60.658;2023-08-01T08:51:07;14.15;;;10.68;;
42726;SDS011;28372;56.832;60.658;2023-08-01T08:53:35;18.40;;;10.63;;
42726;SDS011;28372;56.832;60.658;2023-08-01T08:56:04;15.82;;;10.00;;
42726;SDS011;28372;56.832;60.658;2023-08-01T08:58:35;16.23;;;10.75;;
42726;SDS011;28372;56.832;60.658;2023-08-01T09:01:06;13.30;;;9.90;;
42726;SDS011;28372;56.832;60.658;2023-08-01T09:03:36;17.60;;;10.80;;
42726;SDS011;28372;56.832;60.658;2023-08-01T09:06:07;17.98;;;11.27;;
42726;SDS011;28372;56.832;60.658;2023-08-01T09:08:46;14.93;;;10.25;;
42726;SDS011;28372;56.832;60.658;2023-08-01T09:11:22;11.30;;;8.43;;
42726;SDS011;28372;56.832;60.658;2023-08-01T09:13:51;10.73;;;7.35;;
42726;SDS011;28372;56.832;60.658;2023-08-01T09:16:20;9.10;;;6.63;;
42726;SDS011;28372;56.832;60.658;2023-08-01T09:18:49;9.27;;;6.82;;
42726;SDS011;28372;56.832;60.658;2023-08-01T09:21:20;9.85;;;6.53;;
42726;SDS011;28372;56.832;60.658;2023-08-01T09:23:49;9.38;;;6.22;;
42726;SDS011;28372;56.832;60.658;2023-08-01T09:26:17;7.47;;;5.88;;
42726;SDS011;28372;56.832;60.658;2023-08-01T09:28:56;8.23;;;5.25;;
42726;SDS011;28372;56.832;60.658;2023-08-01T09:31:28;7.85;;;4.90;;
42726;SDS011;28372;56.832;60.658;2023-08-01T09:33:58;8.23;;;5.05;;
42726;SDS011;28372;56.832;60.658;2023-08-01T09:36:25;8.10;;;5.05;;
42726;SDS011;28372;56.832;60.658;2023-08-01T09:38:57;8.13;;;4.72;;
42726;SDS011;28372;56.832;60.658;2023-08-01T09:41:29;7.93;;;4.80;;
42726;SDS011;28372;56.832;60.658;2023-08-01T09:43:58;7.13;;;5.05;;
42726;SDS011;28372;56.832;60.658;2023-08-01T09:46:26;8.70;;;4.95;;
42726;SDS011;28372;56.832;60.658;2023-08-01T09:48:54;7.80;;;5.18;;
42726;SDS011;28372;56.832;60.658;2023-08-01T09:51:21;9.05;;;5.40;;
42726;SDS011;28372;56.832;60.658;2023-08-01T09:53:50;7.75;;;5.03;;
42726;SDS011;28372;56.832;60.658;2023-08-01T09:56:26;8.13;;;5.10;;
42726;SDS011;28372;56.832;60.658;2023-08-01T09:58:56;7.85;;;5.47;;
42726;SDS011;28372;56.832;60.658;2023-08-01T10:01:27;7.88;;;5.22;;
42726;SDS011;28372;56.832;60.658;2023-08-01T10:03:56;8.48;;;5.70;;
42726;SDS011;28372;56.832;60.658;2023-08-01T10:06:27;10.07;;;6.03;;
42726;SDS011;28372;56.832;60.658;2023-08-01T10:08:59;10.20;;;7.00;;
42726;SDS011;28372;56.832;60.658;2023-08-01T10:11:27;11.13;;;6.82;;
42726;SDS011;28372;56.832;60.658;2023-08-01T10:14:02;9.93;;;6.70;;
42726;SDS011;28372;56.832;60.658;2023-08-01T10:16:30;8.40;;;6.28;;
42726;SDS011;28372;56.832;60.658;2023-08-01T10:18:58;8.30;;;6.50;;
42726;SDS011;28372;56.832;60.658;2023-08-01T10:21:26;9.10;;;5.72;;
42726;SDS011;28372;56.832;60.658;2023-08-01T10:23:56;7.45;;;5.65;;
42726;SDS011;28372;56.832;60.658;2023-08-01T10:26:25;8.63;;;5.57;;
42726;SDS011;28372;56.832;60.658;2023-08-01T10:28:54;9.43;;;5.88;;
42726;SDS011;28372;56.832;60.658;2023-08-01T10:31:21;8.52;;;5.32;;
42726;SDS011;28372;56.832;60.658;2023-08-01T10:33:49;8.98;;;5.35;;
42726;SDS011;28372;56.832;60.658;2023-08-01T10:36:18;7.78;;;5.13;;
42726;SDS011;28372;56.832;60.658;2023-08-01T10:38:51;8.63;;;5.28;;
42726;SDS011;28372;56.832;60.658;2023-08-01T10:41:27;8.20;;;5.32;;
42726;SDS011;28372;56.832;60.658;2023-08-01T10:44:12;8.02;;;5.03;;
42726;SDS011;28372;56.832;60.658;2023-08-01T10:49:13;8.32;;;5.38;;
42726;SDS011;28372;56.832;60.658;2023-08-01T10:51:42;6.50;;;4.85;;
42726;SDS011;28372;56.832;60.658;2023-08-01T10:54:23;7.68;;;4.95;;
42726;SDS011;28372;56.832;60.658;2023-08-01T10:56:53;8.02;;;4.57;;
42726;SDS011;28372;56.832;60.658;2023-08-01T10:59:22;5.95;;;4.32;;
42726;SDS011;28372;56.832;60.658;2023-08-01T11:01:51;9.38;;;5.15;;
42726;SDS011;28372;56.832;60.658;2023-08-01T11:04:25;8.02;;;4.82;;
42726;SDS011;28372;56.832;60.658;2023-08-01T11:06:54;10.80;;;5.38;;
42726;SDS011;28372;56.832;60.658;2023-08-01T11:09:27;9.10;;;5.20;;
42726;SDS011;28372;56.832;60.658;2023-08-01T11:11:56;8.75;;;5.43;;
42726;SDS011;28372;56.832;60.658;2023-08-01T11:14:25;9.60;;;5.95;;
42726;SDS011;28372;56.832;60.658;2023-08-01T11:16:55;8.75;;;5.63;;
42726;SDS011;28372;56.832;60.658;2023-08-01T11:19:24;7.85;;;5.50;;
42726;SDS011;28372;56.832;60.658;2023-08-01T11:21:54;8.43;;;5.93;;
42726;SDS011;28372;56.832;60.658;2023-08-01T11:24:27;7.95;;;5.35;;
42726;SDS011;28372;56.832;60.658;2023-08-01T11:26:54;8.85;;;6.05;;
42726;SDS011;28372;56.832;60.658;2023-08-01T11:29:22;9.77;;;5.68;;
42726;SDS011;28372;56.832;60.658;2023-08-01T11:31:57;9.65;;;5.90;;
42726;SDS011;28372;56.832;60.658;2023-08-01T11:34:26;10.57;;;5.72;;
42726;SDS011;28372;56.832;60.658;2023-08-01T11:36:54;9.32;;;5.60;;
42726;SDS011;28372;56.832;60.658;2023-08-01T11:39:22;9.95;;;6.15;;
42726;SDS011;28372;56.832;60.658;2023-08-01T11:41:50;9.57;;;5.80;;
42726;SDS011;28372;56.832;60.658;2023-08-01T11:44:18;9.40;;;5.65;;
42726;SDS011;28372;56.832;60.658;2023-08-01T11:46:51;9.45;;;5.75;;
42726;SDS011;28372;56.832;60.658;2023-08-01T11:49:19;9.38;;;5.60;;
42726;SDS011;28372;56.832;60.658;2023-08-01T11:51:47;10.07;;;5.50;;
42726;SDS011;28372;56.832;60.658;2023-08-01T11:54:14;7.07;;;5.22;;
42726;SDS011;28372;56.832;60.658;2023-08-01T11:56:44;8.15;;;5.00;;
42726;SDS011;28372;56.832;60.658;2023-08-01T11:59:13;6.22;;;4.45;;
42726;SDS011;28372;56.832;60.658;2023-08-01T12:01:43;6.13;;;4.43;;
42726;SDS011;28372;56.832;60.658;2023-08-01T12:04:23;6.93;;;4.88;;
42726;SDS011;28372;56.832;60.658;2023-08-01T12:06:52;6.85;;;4.70;;
42726;SDS011;28372;56.832;60.658;2023-08-01T12:09:20;6.25;;;4.28;;
42726;SDS011;28372;56.832;60.658;2023-08-01T12:11:57;6.50;;;4.55;;
42726;SDS011;28372;56.832;60.658;2023-08-01T12:14:30;8.32;;;5.45;;
42726;SDS011;28372;56.832;60.658;2023-08-01T12:16:57;8.57;;;5.03;;
42726;SDS011;28372;56.832;60.658;2023-08-01T12:19:25;8.00;;;5.18;;
42726;SDS011;28372;56.832;60.658;2023-08-01T12:21:53;6.70;;;5.03;;
42726;SDS011;28372;56.832;60.658;2023-08-01T12:24:21;8.50;;;5.93;;
42726;SDS011;28372;56.832;60.658;2023-08-01T12:26:48;8.98;;;5.78;;
42726;SDS011;28372;56.832;60.658;2023-08-01T12:29:16;10.95;;;6.18;;
42726;SDS011;28372;56.832;60.658;2023-08-01T12:31:44;14.90;;;7.00;;
42726;SDS011;28372;56.832;60.658;2023-08-01T12:34:13;8.20;;;5.88;;
42726;SDS011;28372;56.832;60.658;2023-08-01T12:36:41;10.45;;;5.72;;
42726;SDS011;28372;56.832;60.658;2023-08-01T12:39:10;13.57;;;6.55;;
42726;SDS011;28372;56.832;60.658;2023-08-01T12:41:38;11.82;;;6.40;;
42726;SDS011;28372;56.832;60.658;2023-08-01T12:44:07;11.57;;;6.47;;
42726;SDS011;28372;56.832;60.658;2023-08-01T12:46:34;13.63;;;6.13;;
42726;SDS011;28372;56.832;60.658;2023-08-01T12:49:02;9.68;;;5.80;;
42726;SDS011;28372;56.832;60.658;2023-08-01T12:51:30;7.70;;;4.90;;
42726;SDS011;28372;56.832;60.658;2023-08-01T12:53:58;8.25;;;5.18;;
42726;SDS011;28372;56.832;60.658;2023-08-01T12:56:26;8.20;;;4.53;;
42726;SDS011;28372;56.832;60.658;2023-08-01T12:58:54;9.63;;;5.57;;
42726;SDS011;28372;56.832;60.658;2023-08-01T13:01:21;9.98;;;5.75;;
42726;SDS011;28372;56.832;60.658;2023-08-01T13:03:50;9.65;;;6.15;;
42726;SDS011;28372;56.832;60.658;2023-08-01T13:06:17;9.52;;;5.82;;
42726;SDS011;28372;56.832;60.658;2023-08-01T13:08:45;9.90;;;6.00;;
42726;SDS011;28372;56.832;60.658;2023-08-01T13:11:13;7.75;;;5.50;;
42726;SDS011;28372;56.832;60.658;2023-08-01T13:13:41;11.90;;;5.95;;
42726;SDS011;28372;56.832;60.658;2023-08-01T13:16:09;10.07;;;5.63;;
42726;SDS011;28372;56.832;60.658;2023-08-01T13:18:37;10.07;;;5.85;;
42726;SDS011;28372;56.832;60.658;2023-08-01T13:21:12;8.85;;;5.82;;
42726;SDS011;28372;56.832;60.658;2023-08-01T13:23:40;8.77;;;5.43;;
42726;SDS011;28372;56.832;60.658;2023-08-01T13:26:07;9.80;;;5.90;;
42726;SDS011;28372;56.832;60.658;2023-08-01T13:28:35;9.90;;;6.13;;
42726;SDS011;28372;56.832;60.658;2023-08-01T13:31:03;9.23;;;5.22;;
42726;SDS011;28372;56.832;60.658;2023-08-01T13:33:31;9.15;;;5.28;;
42726;SDS011;28372;56.832;60.658;2023-08-01T13:35:59;7.00;;;5.03;;
42726;SDS011;28372;56.832;60.658;2023-08-01T13:38:27;10.82;;;6.28;;
42726;SDS011;28372;56.832;60.658;2023-08-01T13:40:59;10.27;;;6.13;;
42726;SDS011;28372;56.832;60.658;2023-08-01T13:46:00;10.32;;;7.03;;
42726;SDS011;28372;56.832;60.658;2023-08-01T13:48:33;9.32;;;6.15;;
42726;SDS011;28372;56.832;60.658;2023-08-01T13:51:01;11.05;;;6.00;;
42726;SDS011;28372;56.832;60.658;2023-08-01T13:53:29;8.85;;;5.95;;
42726;SDS011;28372;56.832;60.658;2023-08-01T13:55:56;10.20;;;6.25;;
42726;SDS011;28372;56.832;60.658;2023-08-01T13:58:24;12.18;;;6.40;;
42726;SDS011;28372;56.832;60.658;2023-08-01T14:00:52;10.98;;;5.50;;
42726;SDS011;28372;56.832;60.658;2023-08-01T14:03:20;10.82;;;6.10;;
42726;SDS011;28372;56.832;60.658;2023-08-01T14:05:49;10.10;;;5.97;;
42726;SDS011;28372;56.832;60.658;2023-08-01T14:08:17;8.50;;;5.47;;
42726;SDS011;28372;56.832;60.658;2023-08-01T14:10:45;7.90;;;5.68;;
42726;SDS011;28372;56.832;60.658;2023-08-01T14:13:13;10.55;;;6.25;;
42726;SDS011;28372;56.832;60.658;2023-08-01T14:15:41;8.00;;;5.40;;
42726;SDS011;28372;56.832;60.658;2023-08-01T14:18:09;9.57;;;5.40;;
42726;SDS011;28372;56.832;60.658;2023-08-01T14:20:37;8.40;;;5.20;;
42726;SDS011;28372;56.832;60.658;2023-08-01T14:23:05;9.98;;;5.15;;
42726;SDS011;28372;56.832;60.658;2023-08-01T14:25:33;8.60;;;5.07;;
42726;SDS011;28372;56.832;60.658;2023-08-01T14:28:01;9.60;;;5.57;;
42726;SDS011;28372;56.832;60.658;2023-08-01T14:30:29;10.25;;;5.43;;
42726;SDS011;28372;56.832;60.658;2023-08-01T14:33:01;8.18;;;4.97;;
42726;SDS011;28372;56.832;60.658;2023-08-01T14:35:30;7.80;;;4.97;;
42726;SDS011;28372;56.832;60.658;2023-08-01T14:37:58;10.48;;;5.13;;
42726;SDS011;28372;56.832;60.658;2023-08-01T14:40:26;7.25;;;5.57;;
42726;SDS011;28372;56.832;60.658;2023-08-01T14:42:55;10.95;;;5.53;;
42726;SDS011;28372;56.832;60.658;2023-08-01T14:45:24;12.05;;;5.78;;